Time;durP1;ratioP1;P1;durP2;ratioP2;P2;SDS_P1;SDS_P2;PMS_P1;PMS_P2;Temp;Humidity;BMP_temperature;BMP_pressure;BME280_temperature;BME280_humidity;BME280_pressure;Samples;Min_cycle;Max_cycle;Signal;HPM_P1;HPM_P2
2023/04/06 00:00:23;;;;;;;1999.90;999.90;;;-0.40;99.90;;;;;;5035023;28;20037;-76
2023/04/06 00:02:48;;;;;;;1999.90;999.90;;;-0.40;99.90;;;;;;5033335;28;20022;-76
2023/04/06 00:05:14;;;;;;;1999.90;999.90;;;-0.40;99.90;;;;;;5033297;28;20034;-75
2023/04/06 00:07:40;;;;;;;1999.90;999.90;;;-0.40;99.90;;;;;;5034979;28;20077;-76
2023/04/06 00:10:06;;;;;;;1999.90;999.90;;;-0.40;99.90;;;;;;5042179;28;20380;-75
2023/04/06 00:12:32;;;;;;;1999.90;999.90;;;-0.30;99.90;;;;;;5049693;28;20113;-76
2023/04/06 00:14:57;;;;;;;1999.90;999.90;;;-0.40;99.90;;;;;;5034286;28;20065;-75
2023/04/06 00:17:23;;;;;;;1999.90;999.90;;;-0.40;99.90;;;;;;5036297;28;20064;-75
2023/04/06 00:19:48;;;;;;;1999.90;999.90;;;-0.50;99.90;;;;;;5051030;28;20474;-76
2023/04/06 00:22:14;;;;;;;1999.90;999.90;;;-0.40;99.90;;;;;;5054163;28;20033;-75
2023/04/06 00:24:40;;;;;;;1999.90;999.90;;;-0.40;99.90;;;;;;5043349;28;20058;-75
2023/04/06 00:27:05;;;;;;;1999.90;999.90;;;-0.40;99.90;;;;;;5052615;28;20073;-76
2023/04/06 00:29:31;;;;;;;1999.90;999.90;;;-0.50;99.90;;;;;;5036239;28;20038;-75
2023/04/06 00:31:56;;;;;;;1999.90;999.90;;;-0.50;99.90;;;;;;5054470;28;20131;-76
2023/04/06 00:34:22;;;;;;;1999.90;999.90;;;-0.60;99.90;;;;;;5052385;28;20168;-76
2023/04/06 00:36:47;;;;;;;1999.90;999.90;;;-0.70;99.90;;;;;;5038365;28;20508;-76
2023/04/06 00:39:13;;;;;;;1999.90;999.90;;;-0.70;99.90;;;;;;5048639;28;20045;-76
2023/04/06 00:41:44;;;;;;;1999.90;999.90;;;-0.80;99.90;;;;;;5048644;28;20499;-76
2023/04/06 00:44:09;;;;;;;1999.90;999.90;;;-0.80;99.90;;;;;;5043498;28;20416;-75
2023/04/06 00:46:36;;;;;;;1999.90;999.90;;;-0.70;99.90;;;;;;5056175;28;20040;-75
2023/04/06 00:49:01;;;;;;;1999.90;999.90;;;-0.70;99.90;;;;;;5042112;28;20491;-75
2023/04/06 00:51:27;;;;;;;1999.90;999.90;;;-0.60;99.90;;;;;;5054633;28;20037;-76
2023/04/06 00:53:53;;;;;;;1999.90;999.90;;;-0.50;99.90;;;;;;5056818;28;20069;-76
2023/04/06 00:56:18;;;;;;;1999.90;999.90;;;-0.60;99.90;;;;;;5041471;28;20097;-76
2023/04/06 00:58:44;;;;;;;1999.90;999.90;;;-0.60;99.90;;;;;;5050080;28;20525;-75
2023/04/06 01:01:09;;;;;;;1999.90;999.90;;;-0.70;99.90;;;;;;5043212;28;20038;-75
2023/04/06 01:03:35;;;;;;;1999.90;999.90;;;-0.80;99.90;;;;;;5054028;28;20048;-77
2023/04/06 01:06:01;;;;;;;1999.90;999.90;;;-0.90;99.90;;;;;;5037876;28;20028;-76
2023/04/06 01:08:27;;;;;;;1999.90;999.90;;;-0.90;99.90;;;;;;5042810;28;20483;-76
2023/04/06 01:10:52;;;;;;;1999.90;999.90;;;-0.80;99.90;;;;;;5055193;28;20065;-75
2023/04/06 01:13:18;;;;;;;1999.90;999.90;;;-0.80;99.90;;;;;;5038765;28;20122;-76
2023/04/06 01:15:43;;;;;;;1999.90;999.90;;;-0.80;99.90;;;;;;5015998;28;20068;-75
2023/04/06 01:18:10;;;;;;;1999.90;999.90;;;-0.90;99.90;;;;;;5025123;28;20044;-75
2023/04/06 01:20:36;;;;;;;1999.90;999.90;;;-0.90;99.90;;;;;;5044595;28;20385;-75
2023/04/06 01:23:01;;;;;;;1999.90;999.90;;;-0.80;99.90;;;;;;5036903;28;20049;-75
2023/04/06 01:25:27;;;;;;;1999.90;999.90;;;-0.80;99.90;;;;;;5038214;28;20522;-75
2023/04/06 01:27:52;;;;;;;1999.90;999.90;;;-1.00;99.90;;;;;;5037524;28;20074;-75
2023/04/06 01:30:19;;;;;;;1999.90;999.90;;;-0.90;99.90;;;;;;5044668;28;20048;-75
2023/04/06 01:32:45;;;;;;;1999.90;999.90;;;-1.00;99.90;;;;;;5037299;28;20510;-75
2023/04/06 01:35:10;;;;;;;1999.90;999.90;;;-1.10;99.90;;;;;;5049580;28;20048;-75
2023/04/06 01:37:36;;;;;;;1999.90;999.90;;;-1.10;99.90;;;;;;5038322;28;20049;-76
2023/04/06 01:40:02;;;;;;;1999.90;999.90;;;-1.10;99.90;;;;;;5039534;28;20038;-75
2023/04/06 01:42:28;;;;;;;1999.90;999.90;;;-1.10;99.90;;;;;;5035675;28;20034;-75
2023/04/06 01:44:53;;;;;;;1999.90;999.90;;;-1.00;99.90;;;;;;5045382;28;20041;-75
2023/04/06 01:47:19;;;;;;;1999.90;999.90;;;-0.90;99.90;;;;;;5057183;28;20087;-75
2023/04/06 01:49:45;;;;;;;1999.90;999.90;;;-1.10;99.90;;;;;;5048974;28;20049;-76
2023/04/06 01:52:10;;;;;;;1999.90;999.90;;;-1.10;99.90;;;;;;5051464;28;20041;-75
2023/04/06 01:54:36;;;;;;;1999.90;999.90;;;-1.10;99.90;;;;;;5036788;28;20872;-75
2023/04/06 01:57:02;;;;;;;1999.90;999.90;;;-1.20;99.90;;;;;;5040789;28;20034;-75
2023/04/06 01:59:27;;;;;;;1999.90;999.90;;;-1.20;99.90;;;;;;5056057;28;20041;-75
2023/04/06 02:01:53;;;;;;;1999.90;999.90;;;-1.40;99.90;;;;;;5055101;28;20057;-75
2023/04/06 02:04:18;;;;;;;1999.90;999.90;;;-1.40;99.90;;;;;;5054434;28;20037;-75
2023/04/06 02:06:44;;;;;;;1999.90;999.90;;;-1.40;99.90;;;;;;5056368;28;20041;-75
2023/04/06 02:09:09;;;;;;;1999.90;999.90;;;-1.40;99.90;;;;;;5056351;28;20499;-75
2023/04/06 02:11:35;;;;;;;1999.90;999.90;;;-1.30;99.90;;;;;;5040217;28;20041;-75
2023/04/06 02:14:01;;;;;;;1999.90;999.90;;;-1.20;99.90;;;;;;5052500;28;20041;-75
2023/04/06 02:16:26;;;;;;;1999.90;999.90;;;-1.10;99.90;;;;;;5036508;28;20125;-75
2023/04/06 02:18:52;;;;;;;1999.90;999.90;;;-1.10;99.90;;;;;;5051562;28;20034;-75
2023/04/06 02:21:20;;;;;;;1999.90;999.90;;;-0.90;99.90;;;;;;5049383;28;20073;-75
2023/04/06 02:23:46;;;;;;;1999.90;999.90;;;-0.80;99.90;;;;;;5036132;28;20120;-75
2023/04/06 02:26:12;;;;;;;1999.90;999.90;;;-0.80;99.90;;;;;;5036206;28;20037;-75
2023/04/06 02:28:37;;;;;;;1999.90;999.90;;;-0.80;99.90;;;;;;5036094;28;20388;-75
2023/04/06 02:31:03;;;;;;;1999.90;999.90;;;-0.80;99.90;;;;;;5051578;28;20407;-75
2023/04/06 02:33:29;;;;;;;1999.90;999.90;;;-0.70;99.90;;;;;;5036564;28;20866;-75
2023/04/06 02:35:54;;;;;;;1999.90;999.90;;;-0.70;99.90;;;;;;5036604;28;20038;-75
2023/04/06 02:38:20;;;;;;;1999.90;999.90;;;-0.70;99.90;;;;;;5037822;28;20034;-75
2023/04/06 02:40:45;;;;;;;1999.90;999.90;;;-0.70;99.90;;;;;;5044988;28;20120;-75
2023/04/06 02:43:11;;;;;;;1999.90;999.90;;;-0.60;99.90;;;;;;5049612;28;20034;-75
2023/04/06 02:45:36;;;;;;;1999.90;999.90;;;-0.60;99.90;;;;;;5034857;28;20038;-75
2023/04/06 02:48:02;;;;;;;1999.90;999.90;;;-0.60;99.90;;;;;;5052204;28;20029;-75
2023/04/06 02:50:27;;;;;;;1999.90;999.90;;;-0.60;99.90;;;;;;5044587;28;20046;-75
2023/04/06 02:52:53;;;;;;;1999.90;999.90;;;-0.60;99.90;;;;;;5035921;28;20507;-75
2023/04/06 02:55:19;;;;;;;1999.90;999.90;;;-0.70;99.90;;;;;;5048007;28;20124;-75
2023/04/06 02:57:45;;;;;;;1999.90;999.90;;;-0.80;99.90;;;;;;5039789;28;20072;-75
2023/04/06 03:00:12;;;;;;;1999.90;999.90;;;-0.90;99.90;;;;;;5040803;28;20125;-75
2023/04/06 03:02:38;;;;;;;1999.90;999.90;;;-0.80;99.90;;;;;;5035067;28;20508;-75
2023/04/06 03:05:04;;;;;;;1999.90;999.90;;;-0.90;99.90;;;;;;5053801;28;20037;-75
2023/04/06 03:07:30;;;;;;;1999.90;999.90;;;-0.90;99.90;;;;;;5055860;28;20800;-75
2023/04/06 03:09:55;;;;;;;1999.90;999.90;;;-1.00;99.90;;;;;;5035479;28;20033;-75
2023/04/06 03:12:21;;;;;;;1999.90;999.90;;;-1.00;99.90;;;;;;5035454;28;20030;-75
2023/04/06 03:14:46;;;;;;;1999.90;999.90;;;-1.00;99.90;;;;;;5054476;28;20045;-75
2023/04/06 03:17:12;;;;;;;1999.90;999.90;;;-1.10;99.90;;;;;;5046674;28;20030;-75
2023/04/06 03:19:37;;;;;;;1999.90;999.90;;;-1.10;99.90;;;;;;5049998;28;20037;-75
2023/04/06 03:22:03;;;;;;;1999.90;999.90;;;-1.10;99.90;;;;;;5053627;28;20518;-75
2023/04/06 03:24:28;;;;;;;1999.90;999.90;;;-1.20;99.90;;;;;;5055128;28;20042;-75
2023/04/06 03:26:55;;;;;;;1999.90;999.90;;;-1.30;99.90;;;;;;5041456;28;20069;-75
2023/04/06 03:29:20;;;;;;;1999.90;999.90;;;-1.30;99.90;;;;;;5052088;28;20037;-74
2023/04/06 03:31:49;;;;;;;1999.90;999.90;;;-1.40;99.90;;;;;;5036601;28;20041;-74
2023/04/06 03:34:14;;;;;;;1999.90;999.90;;;-1.40;99.90;;;;;;5047747;28;20049;-74
2023/04/06 03:36:40;;;;;;;1999.90;999.90;;;-1.40;99.90;;;;;;5054869;28;20079;-74
2023/04/06 03:39:05;;;;;;;1999.90;999.90;;;-1.30;99.90;;;;;;5052168;28;20037;-74
2023/04/06 03:41:31;;;;;;;1999.90;999.90;;;-1.20;99.90;;;;;;5033796;28;20040;-74
2023/04/06 03:43:57;;;;;;;1999.90;999.90;;;-1.40;99.90;;;;;;5033376;28;20041;-74
2023/04/06 03:46:22;;;;;;;1999.90;999.90;;;-1.50;99.90;;;;;;5035282;28;20060;-74
2023/04/06 03:48:48;;;;;;;1999.90;999.90;;;-1.40;99.90;;;;;;5049421;28;20502;-75
2023/04/06 03:51:14;;;;;;;1999.90;999.90;;;-1.50;99.90;;;;;;5048241;28;20100;-77
2023/04/06 03:53:40;;;;;;;1999.90;999.90;;;-1.60;99.90;;;;;;5049821;28;20037;-74
2023/04/06 03:56:05;;;;;;;1999.90;999.90;;;-1.70;99.90;;;;;;5033327;28;20377;-76
2023/04/06 03:58:31;;;;;;;1999.90;999.90;;;-1.60;99.90;;;;;;5036454;28;20030;-74
2023/04/06 04:00:56;;;;;;;1999.90;999.90;;;-1.70;99.90;;;;;;5042120;28;20033;-77
2023/04/06 04:03:23;;;;;;;1999.90;999.90;;;-1.70;99.90;;;;;;5054450;28;20042;-74
2023/04/06 04:05:50;;;;;;;1999.90;999.90;;;-1.60;99.90;;;;;;5050590;28;20539;-76
2023/04/06 04:08:15;;;;;;;1999.90;999.90;;;-1.50;99.90;;;;;;5032996;28;20040;-74
2023/04/06 04:10:41;;;;;;;1999.90;999.90;;;-1.50;99.90;;;;;;5034755;28;20089;-73
2023/04/06 04:13:06;;;;;;;1999.90;999.90;;;-1.40;99.90;;;;;;5031436;28;20085;-74
2023/04/06 04:15:32;;;;;;;1999.90;999.90;;;-1.40;99.90;;;;;;5031454;28;20061;-74
2023/04/06 04:17:57;;;;;;;1999.90;999.90;;;-1.50;99.90;;;;;;5032309;28;20034;-74
2023/04/06 04:20:23;;;;;;;1999.90;999.90;;;-1.70;99.90;;;;;;5030554;28;20038;-74
2023/04/06 04:22:48;;;;;;;1999.90;999.90;;;-1.60;99.90;;;;;;5032357;28;20496;-74
2023/04/06 04:25:14;;;;;;;1999.90;999.90;;;-1.50;99.90;;;;;;5032264;28;20439;-74
2023/04/06 04:27:39;;;;;;;1999.90;999.90;;;-1.60;99.90;;;;;;5033287;28;20036;-74
2023/04/06 04:30:06;;;;;;;1999.90;999.90;;;-1.70;99.90;;;;;;5034556;28;20046;-74
2023/04/06 04:32:31;;;;;;;1999.90;999.90;;;-1.60;99.90;;;;;;5032845;28;20026;-74
2023/04/06 04:34:57;;;;;;;1999.90;999.90;;;-1.70;99.90;;;;;;5032967;28;20494;-74
2023/04/06 04:37:22;;;;;;;1999.90;999.90;;;-1.80;99.90;;;;;;5034673;28;20495;-74
2023/04/06 04:39:48;;;;;;;1999.90;999.90;;;-1.70;99.90;;;;;;5034524;28;20041;-74
2023/04/06 04:42:14;;;;;;;1999.90;999.90;;;-1.70;99.90;;;;;;5034512;28;20065;-74
2023/04/06 04:44:39;;;;;;;1999.90;999.90;;;-1.60;99.90;;;;;;5034303;28;20057;-74
2023/04/06 04:47:05;;;;;;;1999.90;999.90;;;-1.60;99.90;;;;;;5034099;28;20034;-75
2023/04/06 04:49:31;;;;;;;1999.90;999.90;;;-1.60;99.90;;;;;;5034366;28;20146;-74
2023/04/06 04:51:56;;;;;;;1999.90;999.90;;;-1.60;99.90;;;;;;5034474;28;20447;-74
2023/04/06 04:54:22;;;;;;;1999.90;999.90;;;-1.80;99.90;;;;;;5033272;28;20045;-74
2023/04/06 04:56:47;;;;;;;1999.90;999.90;;;-1.70;99.90;;;;;;5034362;28;20037;-74
2023/04/06 04:59:13;;;;;;;1999.90;999.90;;;-1.60;99.90;;;;;;5034211;28;20038;-74
2023/04/06 05:01:38;;;;;;;1999.90;999.90;;;-1.50;99.90;;;;;;5033718;28;20105;-74
2023/04/06 05:04:04;;;;;;;1999.90;999.90;;;-1.60;99.90;;;;;;5033846;28;20038;-74
2023/04/06 05:06:30;;;;;;;1999.90;999.90;;;-1.70;99.90;;;;;;5034070;28;20034;-75
2023/04/06 05:08:55;;;;;;;1999.90;999.90;;;-1.70;99.90;;;;;;5032498;28;20084;-75
2023/04/06 05:11:21;;;;;;;1999.90;999.90;;;-1.60;99.90;;;;;;5034017;28;20038;-74
2023/04/06 05:13:47;;;;;;;1999.90;999.90;;;-1.60;99.90;;;;;;5033684;28;20069;-74
2023/04/06 05:16:12;;;;;;;1999.90;999.90;;;-1.50;99.90;;;;;;5034042;28;20055;-74
2023/04/06 05:18:38;;;;;;;1999.90;999.90;;;-1.40;99.90;;;;;;5032501;28;20497;-74
2023/04/06 05:21:03;;;;;;;1999.90;999.90;;;-1.20;99.90;;;;;;5033438;28;20096;-73
2023/04/06 05:23:29;;;;;;;1999.90;999.90;;;-1.20;99.90;;;;;;5033564;28;20447;-73
2023/04/06 05:25:55;;;;;;;1999.90;999.90;;;-1.20;99.90;;;;;;5033766;28;20042;-73
2023/04/06 05:28:20;;;;;;;1999.90;999.90;;;-1.20;99.90;;;;;;5033868;28;20065;-73
2023/04/06 05:30:46;;;;;;;1999.90;999.90;;;-1.20;99.90;;;;;;5033738;28;20500;-73
2023/04/06 05:33:12;;;;;;;1999.90;999.90;;;-1.10;99.90;;;;;;5036366;28;20052;-73
2023/04/06 05:35:37;;;;;;;1999.90;999.90;;;-1.10;99.90;;;;;;5037011;28;20503;-73
2023/04/06 05:38:03;;;;;;;1999.90;999.90;;;-1.00;99.90;;;;;;5037120;28;20077;-73
2023/04/06 05:40:28;;;;;;;1999.90;999.90;;;-1.00;99.90;;;;;;5035561;28;20046;-74
2023/04/06 05:42:54;;;;;;;1999.90;999.90;;;-1.00;99.90;;;;;;5037077;28;20085;-73
2023/04/06 05:45:21;;;;;;;1999.90;999.90;;;-0.90;99.90;;;;;;5036897;28;20049;-74
2023/04/06 05:47:46;;;;;;;1999.90;999.90;;;-1.00;99.90;;;;;;5037037;28;20030;-74
2023/04/06 05:50:13;;;;;;;1999.90;999.90;;;-1.00;99.90;;;;;;5036887;28;20046;-75
2023/04/06 05:52:41;;;;;;;1999.90;999.90;;;-0.90;99.90;;;;;;5036713;28;20034;-75
2023/04/06 05:55:07;;;;;;;1999.90;999.90;;;-0.90;99.90;;;;;;5036435;28;20034;-74
2023/04/06 05:57:32;;;;;;;1999.90;999.90;;;-0.90;99.90;;;;;;5036682;28;20037;-75
2023/04/06 05:59:58;;;;;;;1999.90;999.90;;;-0.70;99.90;;;;;;5035289;28;20096;-74
2023/04/06 06:02:23;;;;;;;1999.90;999.90;;;-0.70;99.90;;;;;;5036634;28;20069;-74
2023/04/06 06:04:49;;;;;;;1999.90;999.90;;;-0.70;99.90;;;;;;5035023;28;20026;-75
2023/04/06 06:07:15;;;;;;;1999.90;999.90;;;-0.70;99.90;;;;;;5036768;28;20041;-74
2023/04/06 06:09:40;;;;;;;1999.90;999.90;;;-0.60;99.90;;;;;;5035139;28;20057;-74
2023/04/06 06:12:06;;;;;;;1999.90;999.90;;;-0.60;99.90;;;;;;5036696;28;20034;-75
2023/04/06 06:14:32;;;;;;;1999.90;999.90;;;-0.60;99.90;;;;;;5036508;28;20173;-75
2023/04/06 06:16:57;;;;;;;1999.90;999.90;;;-0.60;99.90;;;;;;5036773;28;20058;-75
2023/04/06 06:19:23;;;;;;;1999.90;999.90;;;-0.50;99.90;;;;;;5036664;28;20042;-75
2023/04/06 06:21:49;;;;;;;1999.90;999.90;;;-0.50;99.90;;;;;;5036250;28;20030;-75
2023/04/06 06:24:15;;;;;;;1999.90;999.90;;;-0.40;99.90;;;;;;5034963;28;20053;-75
2023/04/06 06:26:40;;;;;;;1999.90;999.90;;;-0.30;99.90;;;;;;5036365;28;20037;-75
2023/04/06 06:29:06;;;;;;;1999.90;999.90;;;-0.20;99.90;;;;;;5036153;28;20495;-75
2023/04/06 06:31:32;;;;;;;1999.90;999.90;;;-0.10;99.90;;;;;;5036242;28;20538;-75
2023/04/06 06:33:58;;;;;;;1999.90;999.90;;;0.00;99.90;;;;;;5035757;28;20034;-75
2023/04/06 06:36:23;;;;;;;1999.90;999.90;;;0.00;99.90;;;;;;5036172;28;20033;-75
2023/04/06 06:38:49;;;;;;;1999.90;999.90;;;0.10;99.90;;;;;;5036133;28;20042;-75
2023/04/06 06:41:15;;;;;;;1999.90;999.90;;;0.20;99.90;;;;;;5036183;28;20033;-75
2023/04/06 06:43:40;;;;;;;1999.90;999.90;;;0.30;99.90;;;;;;5033907;28;20092;-75
2023/04/06 06:46:06;;;;;;;1999.90;999.90;;;0.40;99.90;;;;;;5034353;28;20092;-74
2023/04/06 06:48:32;;;;;;;1999.90;999.90;;;0.50;99.90;;;;;;5036165;28;20065;-74
2023/04/06 06:50:57;;;;;;;1999.90;999.90;;;0.60;99.90;;;;;;5034429;28;20122;-74
2023/04/06 06:53:23;;;;;;;1999.90;999.90;;;0.60;99.90;;;;;;5035309;28;20034;-74
2023/04/06 06:55:49;;;;;;;1999.90;999.90;;;0.70;99.90;;;;;;5034114;28;20040;-74
2023/04/06 06:58:17;;;;;;;1999.90;999.90;;;0.80;99.90;;;;;;5035891;28;20041;-74
2023/04/06 07:00:43;;;;;;;1999.90;999.90;;;0.90;99.90;;;;;;5035869;28;20038;-74
2023/04/06 07:03:08;;;;;;;1999.90;999.90;;;1.10;99.90;;;;;;5035837;28;20029;-75
2023/04/06 07:05:34;;;;;;;1999.90;999.90;;;1.20;99.90;;;;;;5035466;28;20554;-75
2023/04/06 07:08:00;;;;;;;1999.90;999.90;;;1.30;99.90;;;;;;5035786;28;20037;-75
2023/04/06 07:10:27;;;;;;;1999.90;999.90;;;1.50;99.90;;;;;;5035447;28;20388;-75
2023/04/06 07:12:52;;;;;;;1999.90;999.90;;;1.60;99.90;;;;;;5035264;28;20089;-74
2023/04/06 07:15:18;;;;;;;1999.90;999.90;;;1.70;99.90;;;;;;5035385;28;20092;-75
2023/04/06 07:17:45;;;;;;;1999.90;999.90;;;1.80;99.90;;;;;;5035384;28;20037;-75
2023/04/06 07:20:11;;;;;;;1999.90;999.90;;;2.00;99.90;;;;;;5033989;28;20033;-74
2023/04/06 07:22:38;;;;;;;1999.90;999.90;;;2.20;99.90;;;;;;5033358;28;20034;-75
2023/04/06 07:25:04;;;;;;;1999.90;999.90;;;2.30;99.90;;;;;;5035293;28;20040;-75
2023/04/06 07:27:29;;;;;;;1999.90;999.90;;;2.40;99.90;;;;;;5034089;28;20030;-74
2023/04/06 07:29:55;;;;;;;1999.90;999.90;;;2.60;99.90;;;;;;5035368;28;20377;-75
2023/04/06 07:32:20;;;;;;;1999.90;999.90;;;2.70;99.90;;;;;;5035330;28;20034;-75
2023/04/06 07:34:46;;;;;;;1999.90;999.90;;;2.90;99.90;;;;;;5033553;28;20117;-75
2023/04/06 07:37:12;;;;;;;1999.90;999.90;;;3.10;99.90;;;;;;5040170;28;20041;-74
2023/04/06 07:39:37;;;;;;;1999.90;999.90;;;3.30;99.90;;;;;;5033839;28;20037;-74
2023/04/06 07:42:03;;;;;;;1999.90;999.90;;;3.40;99.90;;;;;;5035247;28;20446;-75
2023/04/06 07:44:28;;;;;;;1999.90;999.90;;;3.60;99.90;;;;;;5034939;28;20041;-75
2023/04/06 07:46:54;;;;;;;1999.90;999.90;;;3.80;99.90;;;;;;5035119;28;20051;-75
2023/04/06 07:49:20;;;;;;;1999.90;999.90;;;3.90;99.90;;;;;;5035175;28;20415;-75
2023/04/06 07:51:46;;;;;;;1999.90;999.90;;;4.20;99.90;;;;;;5035064;28;20491;-75
2023/04/06 07:54:12;;;;;;;1999.90;999.90;;;4.30;99.90;;;;;;5034303;28;20044;-75
2023/04/06 07:56:37;;;;;;;1999.90;999.90;;;4.50;99.90;;;;;;5034113;28;20502;-75
2023/04/06 07:59:03;;;;;;;1999.90;999.90;;;4.60;99.90;;;;;;5034944;28;20463;-76
2023/04/06 08:01:28;;;;;;;1999.90;999.90;;;4.70;99.90;;;;;;5034977;28;20447;-75
2023/04/06 08:03:55;;;;;;;1999.90;999.90;;;4.90;99.90;;;;;;5034429;28;20480;-75
2023/04/06 08:06:21;;;;;;;1999.90;999.90;;;4.90;99.90;;;;;;5034466;28;20520;-75
2023/04/06 08:08:46;;;;;;;1999.90;999.90;;;5.10;99.90;;;;;;5034538;28;20037;-75
2023/04/06 08:11:12;;;;;;;1999.90;999.90;;;5.30;99.90;;;;;;5034652;28;20046;-76
2023/04/06 08:13:37;;;;;;;1999.90;999.90;;;5.40;99.90;;;;;;5033040;28;20030;-75
2023/04/06 08:16:03;;;;;;;1999.90;999.90;;;5.50;99.90;;;;;;5034417;28;20034;-75
2023/04/06 08:18:29;;;;;;;1999.90;999.90;;;5.70;99.20;;;;;;5033200;28;20036;-77
2023/04/06 08:20:55;;;;;;;1999.90;999.90;;;5.90;99.40;;;;;;5034535;28;20049;-75
2023/04/06 08:23:21;;;;;;;1999.90;999.90;;;6.10;99.20;;;;;;5034471;28;20041;-74
2023/04/06 08:25:46;;;;;;;1999.90;999.90;;;6.20;99.50;;;;;;5034412;28;20038;-74
2023/04/06 08:28:12;;;;;;;1999.90;999.90;;;6.40;99.40;;;;;;5034562;28;20030;-74
2023/04/06 08:30:40;;;;;;;1999.90;999.90;;;6.60;99.20;;;;;;5034457;28;20792;-74
2023/04/06 08:33:06;;;;;;;1999.90;999.90;;;6.60;98.50;;;;;;5033995;28;20511;-74
2023/04/06 08:35:32;;;;;;;1999.90;999.90;;;6.80;97.30;;;;;;5034235;28;20049;-74
2023/04/06 08:37:57;;;;;;;1999.90;999.90;;;7.00;97.80;;;;;;5034517;28;20040;-74
2023/04/06 08:40:23;;;;;;;1999.90;999.90;;;7.30;97.30;;;;;;5034194;28;20045;-74
2023/04/06 08:42:53;;;;;;;1999.90;999.90;;;7.40;97.50;;;;;;5035510;28;20033;-75
2023/04/06 08:45:21;;;;;;;1999.90;999.90;;;7.50;97.10;;;;;;5034446;28;20041;-74
2023/04/06 08:47:50;;;;;;;1999.90;999.90;;;7.70;96.30;;;;;;5034030;28;20037;-74
2023/04/06 08:50:16;;;;;;;1999.90;999.90;;;7.80;96.20;;;;;;5033792;28;20038;-76
2023/04/06 08:52:49;;;;;;;1999.90;999.90;;;7.90;96.40;;;;;;5033726;28;20034;-75
2023/04/06 08:55:15;;;;;;;1999.90;999.90;;;8.00;96.00;;;;;;5033792;28;20522;-75
2023/04/06 08:57:41;;;;;;;1999.90;999.90;;;8.20;95.80;;;;;;5033808;28;20030;-75
2023/04/06 09:00:11;;;;;;;1999.90;999.90;;;8.30;95.00;;;;;;5033831;28;20034;-77
2023/04/06 09:02:43;;;;;;;1999.90;999.90;;;8.40;94.60;;;;;;5032119;28;20173;-77
2023/04/06 09:05:10;;;;;;;1999.90;999.90;;;8.50;93.30;;;;;;5033290;28;20049;-76
2023/04/06 09:07:36;;;;;;;1999.90;999.90;;;8.60;93.80;;;;;;5036179;28;20057;-77
2023/04/06 09:10:03;;;;;;;1999.90;999.90;;;8.90;92.50;;;;;;5043984;28;20135;-76
2023/04/06 09:12:33;;;;;;;1999.90;999.90;;;9.10;90.80;;;;;;5057216;28;20032;-75
2023/04/06 09:15:01;;;;;;;1999.90;999.90;;;9.20;90.20;;;;;;5055320;28;20034;-75
2023/04/06 09:17:29;;;;;;;1999.90;999.90;;;9.40;90.40;;;;;;5057152;28;20180;-74
2023/04/06 09:19:55;;;;;;;1999.90;999.90;;;9.40;90.00;;;;;;5056520;28;20080;-74
2023/04/06 09:22:22;;;;;;;1999.90;999.90;;;9.60;90.60;;;;;;5055459;28;20121;-74
2023/04/06 09:24:50;;;;;;;1999.90;999.90;;;9.80;90.40;;;;;;5057253;28;20037;-74
2023/04/06 09:27:16;;;;;;;1999.90;999.90;;;9.90;90.40;;;;;;5056953;28;20112;-74
2023/04/06 09:29:42;;;;;;;1999.90;999.90;;;10.10;90.10;;;;;;5056828;28;20553;-74
2023/04/06 09:32:16;;;;;;;1999.90;999.90;;;10.20;90.00;;;;;;5057096;28;20038;-74
2023/04/06 09:34:42;;;;;;;1999.90;999.90;;;10.20;91.00;;;;;;5055304;22;20490;-75
2023/04/06 09:37:18;;;;;;;1999.90;999.90;;;10.30;87.70;;;;;;5037486;28;20040;-75
2023/04/06 09:39:44;;;;;;;1999.90;999.90;;;10.30;88.60;;;;;;5037141;28;20034;-75
2023/04/06 09:42:23;;;;;;;1999.90;999.90;;;10.30;88.80;;;;;;5035749;28;20744;-75
2023/04/06 09:44:48;;;;;;;1999.90;999.90;;;10.40;87.50;;;;;;5051682;28;20555;-75
2023/04/06 09:47:16;;;;;;;1999.90;999.90;;;10.60;88.10;;;;;;5037006;28;20124;-74
2023/04/06 09:49:44;;;;;;;1999.90;999.90;;;10.70;86.00;;;;;;5035223;28;20049;-74
2023/04/06 09:52:12;;;;;;;1999.90;999.90;;;10.80;84.90;;;;;;5035629;28;20087;-75
2023/04/06 09:54:38;;;;;;;1999.90;999.90;;;10.90;81.40;;;;;;5036239;28;20124;-75
2023/04/06 09:57:21;;;;;;;1999.90;999.90;;;10.90;82.00;;;;;;5037626;28;20030;-76
2023/04/06 09:59:57;;;;;;;1999.90;999.90;;;11.00;81.10;;;;;;5039157;28;20037;-78
2023/04/06 10:02:37;;;;;;;1999.90;999.90;;;11.10;79.60;;;;;;5046113;28;20030;-76
2023/04/06 10:05:11;;;;;;;1999.90;999.90;;;11.40;80.50;;;;;;5046692;28;20049;-77
2023/04/06 10:07:39;;;;;;;1999.90;999.90;;;11.60;81.10;;;;;;5040020;28;20538;-78
2023/04/06 10:10:06;;;;;;;1999.90;999.90;;;11.50;78.80;;;;;;5035890;28;20033;-76
2023/04/06 10:12:32;;;;;;;1999.90;999.90;;;11.30;77.60;;;;;;5037103;28;20036;-77
2023/04/06 10:14:57;;;;;;;1999.90;999.90;;;11.20;78.80;;;;;;5038247;28;20057;-78
2023/04/06 10:17:24;;;;;;;1999.90;999.90;;;11.40;78.70;;;;;;5038814;28;20050;-78
2023/04/06 10:19:52;;;;;;;1999.90;999.90;;;11.40;78.50;;;;;;5036526;28;20030;-78
2023/04/06 10:22:29;;;;;;;1999.90;999.90;;;11.50;77.70;;;;;;5039437;28;20038;-78
2023/04/06 10:24:54;;;;;;;1999.90;999.90;;;11.60;74.00;;;;;;5039039;28;20049;-77
2023/04/06 10:27:30;;;;;;;1999.90;999.90;;;11.50;77.50;;;;;;5037749;28;20098;-78
2023/04/06 10:30:02;;;;;;;1999.90;999.90;;;11.50;75.80;;;;;;5039832;28;20042;-77
2023/04/06 10:32:38;;;;;;;1999.90;999.90;;;11.60;73.90;;;;;;5038180;28;20092;-78
2023/04/06 10:35:12;;;;;;;1999.90;999.90;;;11.80;69.00;;;;;;5040421;28;20053;-78
2023/04/06 10:37:51;;;;;;;1999.90;999.90;;;11.90;67.20;;;;;;5039775;28;20030;-79
2023/04/06 10:40:25;;;;;;;1999.90;999.90;;;11.60;67.10;;;;;;5038016;28;20060;-78
2023/04/06 10:42:52;;;;;;;1999.90;999.90;;;11.60;67.50;;;;;;5038551;28;20041;-80
2023/04/06 10:45:23;;;;;;;1999.90;999.90;;;11.80;69.60;;;;;;5038964;28;20029;-79
2023/04/06 10:47:49;;;;;;;1999.90;999.90;;;12.00;66.80;;;;;;5040158;28;20574;-79
2023/04/06 10:50:16;;;;;;;1999.90;999.90;;;12.10;65.30;;;;;;5039849;28;20049;-80
2023/04/06 10:52:45;;;;;;;1999.90;999.90;;;12.30;65.40;;;;;;5040211;28;20034;-78
2023/04/06 10:55:12;;;;;;;1999.90;999.90;;;12.40;63.70;;;;;;5039661;28;20041;-78
2023/04/06 10:57:38;;;;;;;1999.90;999.90;;;12.30;64.50;;;;;;5037675;28;20030;-79
2023/04/06 11:00:05;;;;;;;1999.90;999.90;;;12.50;64.60;;;;;;5039381;28;20037;-79
2023/04/06 11:02:31;;;;;;;1999.90;999.90;;;12.80;62.50;;;;;;5037772;28;20455;-80
2023/04/06 11:04:58;;;;;;;1999.90;999.90;;;12.60;64.90;;;;;;5035112;28;20041;-77
2023/04/06 11:07:29;;;;;;;1999.90;999.90;;;12.50;63.00;;;;;;5035110;28;20067;-77
2023/04/06 11:09:55;;;;;;;1999.90;999.90;;;12.50;63.40;;;;;;5035204;28;20037;-77
2023/04/06 11:12:26;;;;;;;1999.90;999.90;;;12.70;66.60;;;;;;5033361;28;20033;-75
2023/04/06 11:15:06;;;;;;;1999.90;999.90;;;12.90;63.80;;;;;;5034468;28;20042;-74
2023/04/06 11:17:35;;;;;;;1999.90;999.90;;;13.20;62.80;;;;;;5035867;28;20514;-73
2023/04/06 11:20:01;;;;;;;1999.90;999.90;;;13.10;64.40;;;;;;5040507;28;20038;-72
2023/04/06 11:22:27;;;;;;;1999.90;999.90;;;13.30;66.30;;;;;;5035266;28;20100;-73
2023/04/06 11:24:52;;;;;;;1999.90;999.90;;;13.50;61.60;;;;;;5033102;28;20038;-78
2023/04/06 11:27:20;;;;;;;1999.90;999.90;;;13.40;60.30;;;;;;5033688;28;20073;-73
2023/04/06 11:29:46;;;;;;;1999.90;999.90;;;13.50;61.90;;;;;;5033571;28;20042;-73
2023/04/06 11:32:19;;;;;;;1999.90;999.90;;;13.90;62.00;;;;;;5034369;28;20026;-73
2023/04/06 11:34:47;;;;;;;1999.90;999.90;;;14.10;59.90;;;;;;5034947;28;20499;-77
2023/04/06 11:37:13;;;;;;;1999.90;999.90;;;14.20;59.30;;;;;;5035221;28;20044;-74
2023/04/06 11:39:50;;;;;;;1999.90;999.90;;;13.90;59.00;;;;;;5034903;28;20030;-74
2023/04/06 11:42:23;;;;;;;1999.90;999.90;;;14.30;59.80;;;;;;5033402;28;20030;-74
2023/04/06 11:44:54;;;;;;;1999.90;999.90;;;14.60;59.20;;;;;;5034527;28;20122;-74
2023/04/06 11:47:26;;;;;;;1999.90;999.90;;;14.60;57.20;;;;;;5035181;28;20033;-74
2023/04/06 11:49:52;;;;;;;1999.90;999.90;;;14.80;55.70;;;;;;5035105;28;20515;-74
2023/04/06 11:52:23;;;;;;;1999.90;999.90;;;15.00;56.40;;;;;;5032833;28;20030;-74
2023/04/06 11:54:50;;;;;;;1999.90;999.90;;;14.90;55.60;;;;;;5034155;28;20613;-74
2023/04/06 11:57:16;;;;;;;1999.90;999.90;;;14.90;55.40;;;;;;5034708;28;20503;-75